Gretna, LA (70056)

12:56 PM CDT on September 18, 2014 (GMT -0500)
Gretna / Terrytown 3S | Change Station
CLOSE
Current Station
Personal Weather Station
Location: Gretna, LA
Elevation: 7 ft
Nearby Weather Stations

Elev 7 ft 29.85 °N, 90.03 °W | Updated 11 seconds ago

Overcast
Overcast
87.6 °F
Feels Like 95 °F
N
4.0
Wind Variable Wind from SSW
Gusts 12.0 mph

Today
High -- | Low -- °F
--% Chance of Precip.
Yesterday
High -- | Low -- °F
Precip. -- in
6:46 AM 7:01 PM
Waning Crescent, 25% visible
Pressure 29.92 in
Visibility 8.0 miles
Clouds Scattered Clouds 2600 ft
Mostly Cloudy 6000 ft
Overcast 25000 ft
Heat Index 95 °F
Dew Point 73 °F
Humidity 62%
Rainfall 0.00 in
Snow Depth Not available.
UV 3 out of 12
Pollen 8.00 out of 12
Ozone Good
PM2.5 Moderate
Flu Activity Not available.
METAR KNBG 181655Z 10004KT 8SM SCT026 BKN060 OVC250 30/23 A2992 RMK AO2 SLP132 T2 SET T03000228 $

More Conditions Fewer Conditions

Pressure 29.92 in
Visibility 8.0 miles
Clouds Scattered Clouds 2600 ft
Mostly Cloudy 6000 ft
Overcast 25000 ft
Heat Index 95 °F
Dew Point 73 °F
Humidity 62%
Rainfall 0.00 in
Snow Depth Not available.
UV 3 out of 12
Pollen 8.00 out of 12
Ozone Good
PM2.5 Moderate
Flu Activity Not available.
METAR KNBG 181655Z 10004KT 8SM SCT026 BKN060 OVC250 30/23 A2992 RMK AO2 SLP132 T2 SET T03000228 $

More Conditions Fewer Conditions

10-Day Weather Forecast

Almanac

Astronomy

Sep. 18, 2014 Rise Set
Actual Time 6:46 AM CDT 7:01 PM CDT
Civil Twilight 6:22 AM CDT 7:25 PM CDT
Nautical Twilight 5:54 AM CDT 7:53 PM CDT
Astronomical Twilight 5:26 AM CDT 8:21 PM CDT
Moon 1:55 AM CDT 3:37 PM CDT
Length of Visible Light 13h 03m
Length of Day
12h 15m
Tomorrow will be 1m 47s shorter.
Waning Crescent, 25% of the Moon is Illuminated
Today
Waning Crescent
Sep 24
New
Oct 1
First Quarter
Oct 8
Full
Oct 15
Last Quarter

Today's Extremes

State Highs State Lows

Community

WunderPhotos

Upload Photos

1,754,409 photos uploaded!

Nearby

Air Quality

  Air Quality AQ Index Pollutant
Yesterday Good
PM2.5
Yesterday Good
OZONE
Current Moderate
PM2.5
Current Good
OZONE
Thursday Moderate
PM2.5
Thursday Good
OZONE
Friday Good
PM2.5
Friday Good
OZONE

Snow Depth

Station Depth Elevation
No new snow has been reported.

Earthquake Activity

City Distance Mag. Time & Date
No recent earthquake activity has been reported nearby.
Minimum magnitude displayed is 2.5.

Coastal Water Temperatures

Place Temperature
New Canal, LA 82.9 °F
Shell Beach, LA 81.0 °F
Bayou Gauche, LA 84.0 °F

Nearby Weather Stations